Time;durP1;ratioP1;P1;durP2;ratioP2;P2;SDS_P1;SDS_P2;PMS_P1;PMS_P2;Temp;Humidity;BMP_temperature;BMP_pressure;BME280_temperature;BME280_humidity;BME280_pressure;Samples;Min_cycle;Max_cycle;Signal;HPM_P1;HPM_P2
2022/05/13 00:00:52;;;;;;;10.93;6.00;;;;;;;22.87;64.42;100573.59;5113372;28;20215;-63
2022/05/13 00:03:17;;;;;;;12.80;5.97;;;;;;;22.87;64.36;100585.09;5112956;28;20166;-63
2022/05/13 00:05:43;;;;;;;7.00;5.47;;;;;;;22.86;64.00;100583.44;5104171;28;20166;-63
2022/05/13 00:08:08;;;;;;;8.47;5.93;;;;;;;22.87;64.17;100587.97;5092883;28;20171;-63
2022/05/13 00:10:34;;;;;;;9.93;5.10;;;;;;;22.86;64.04;100578.50;5093202;28;20287;-63
2022/05/13 00:12:59;;;;;;;12.60;5.77;;;;;;;22.86;64.42;100581.38;5092808;28;20661;-63
2022/05/13 00:15:26;;;;;;;7.83;5.37;;;;;;;22.85;64.27;100582.63;5092762;28;20548;-63
2022/05/13 00:17:54;;;;;;;8.90;5.60;;;;;;;22.86;64.32;100578.50;5122128;27;20222;-63
2022/05/13 00:20:20;;;;;;;13.50;6.40;;;;;;;22.86;64.22;100584.25;5127601;27;20454;-63
2022/05/13 00:22:50;;;;;;;9.93;5.93;;;;;;;22.85;64.38;100579.75;5102753;28;20423;-63
2022/05/13 00:25:17;;;;;;;9.43;5.30;;;;;;;22.85;64.04;100570.28;5113065;28;20603;-63
2022/05/13 00:27:43;;;;;;;9.50;5.67;;;;;;;22.84;64.25;100572.34;5112818;28;20936;-63
2022/05/13 00:30:10;;;;;;;7.83;5.40;;;;;;;22.85;64.24;100573.16;5113138;28;20451;-63
2022/05/13 00:32:36;;;;;;;7.50;5.43;;;;;;;22.85;64.56;100574.00;5112119;28;20230;-63
2022/05/13 00:35:02;;;;;;;7.77;6.07;;;;;;;22.85;64.32;100576.88;5113034;28;20422;-63
2022/05/13 00:37:28;;;;;;;9.97;6.40;;;;;;;22.86;64.90;100577.66;5112971;28;20442;-63
2022/05/13 00:39:53;;;;;;;6.87;5.77;;;;;;;22.85;64.58;100582.63;5113020;28;20399;-63
2022/05/13 00:42:19;;;;;;;7.37;5.47;;;;;;;22.85;63.93;100574.00;5112589;27;20185;-63
2022/05/13 00:44:45;;;;;;;7.73;5.47;;;;;;;22.86;64.11;100580.56;5112365;28;20197;-63
2022/05/13 00:47:11;;;;;;;7.13;5.53;;;;;;;22.86;64.14;100581.38;5112950;28;20502;-63
2022/05/13 00:49:37;;;;;;;7.87;5.63;;;;;;;22.86;64.41;100595.78;5112513;28;20458;-63
2022/05/13 00:52:03;;;;;;;7.67;5.50;;;;;;;22.85;64.73;100593.31;5095113;28;20178;-63
2022/05/13 00:54:28;;;;;;;5.47;4.90;;;;;;;22.84;64.47;100585.91;5092209;28;20183;-63
2022/05/13 00:56:54;;;;;;;10.20;5.90;;;;;;;22.85;64.26;100590.41;5073907;28;20174;-63
2022/05/13 00:59:21;;;;;;;7.73;6.07;;;;;;;22.83;64.39;100596.56;5090137;28;20185;-63
2022/05/13 01:01:48;;;;;;;8.67;5.30;;;;;;;22.82;64.61;100597.81;5089524;28;20174;-63
2022/05/13 01:04:14;;;;;;;11.93;6.23;;;;;;;22.81;64.43;100584.66;5090460;28;20417;-63
2022/05/13 01:06:41;;;;;;;10.90;5.67;;;;;;;22.81;64.21;100570.25;5089097;28;20424;-63
2022/05/13 01:09:06;;;;;;;6.30;5.30;;;;;;;22.81;64.07;100572.28;5088642;28;20468;-63
2022/05/13 01:11:33;;;;;;;11.83;5.60;;;;;;;22.82;64.13;100571.09;5090260;28;20411;-63
2022/05/13 01:14:08;;;;;;;6.50;4.90;;;;;;;22.81;64.24;100584.66;5072665;28;20169;-63
2022/05/13 01:18:05;;;;;;;9.00;5.30;;;;;;;22.80;64.08;100583.00;5103362;27;20441;-63
2022/05/13 01:19:19;;;;;;;6.57;4.80;;;;;;;22.80;64.14;100590.81;5130899;27;20468;-63
2022/05/13 01:21:48;;;;;;;7.60;5.10;;;;;;;22.78;64.09;100590.41;5096858;28;20452;-63
2022/05/13 01:24:18;;;;;;;8.57;5.10;;;;;;;22.79;64.06;100589.16;5092534;28;20181;-63
2022/05/13 01:26:43;;;;;;;7.97;5.20;;;;;;;22.78;64.08;100585.44;5091595;28;20416;-63
2022/05/13 01:29:09;;;;;;;8.70;5.40;;;;;;;22.78;63.98;100576.00;5093837;28;20954;-63
2022/05/13 01:31:36;;;;;;;6.43;5.00;;;;;;;22.77;63.91;100580.91;5091477;28;20399;-63
2022/05/13 01:34:06;;;;;;;6.63;5.10;;;;;;;22.78;64.21;100581.75;5090200;28;20224;-63
2022/05/13 01:36:31;;;;;;;7.83;5.13;;;;;;;22.78;63.82;100594.09;5093764;28;20490;-63
2022/05/13 01:38:58;;;;;;;6.90;4.63;;;;;;;22.77;64.03;100586.69;5089498;28;20984;-63
2022/05/13 01:41:23;;;;;;;7.37;4.93;;;;;;;22.77;64.02;100591.63;5089451;28;20629;-63
2022/05/13 01:43:49;;;;;;;9.33;5.23;;;;;;;22.77;64.01;100583.81;5089116;28;20423;-63
2022/05/13 01:46:15;;;;;;;7.70;4.27;;;;;;;22.76;63.81;100579.28;5089313;28;20237;-63
2022/05/13 01:48:40;;;;;;;9.50;4.53;;;;;;;22.76;63.83;100570.63;5093564;28;20172;-63
2022/05/13 01:51:06;;;;;;;6.53;5.00;;;;;;;22.77;63.74;100577.22;5098545;28;20178;-63
2022/05/13 01:53:32;;;;;;;7.23;4.80;;;;;;;22.77;63.63;100580.13;5089198;28;20667;-63
2022/05/13 01:55:57;;;;;;;6.67;4.53;;;;;;;22.76;64.11;100585.03;5091225;28;20170;-63
2022/05/13 01:58:23;;;;;;;7.97;4.87;;;;;;;22.76;63.54;100590.78;5092860;28;20166;-63
2022/05/13 02:00:50;;;;;;;7.17;4.07;;;;;;;22.77;63.90;100580.13;5111133;28;20192;-63
2022/05/13 02:05:59;;;;;;;6.33;4.40;;;;;;;22.76;63.89;100587.91;5110230;28;20428;-63
2022/05/13 02:08:25;;;;;;;10.97;4.27;;;;;;;22.76;64.00;100590.78;5111173;28;20822;-63
2022/05/13 02:10:51;;;;;;;5.93;4.13;;;;;;;22.75;63.50;100585.44;5110753;28;20225;-63
2022/05/13 02:13:16;;;;;;;6.10;4.60;;;;;;;22.75;63.45;100582.56;5111457;28;20170;-63
2022/05/13 02:15:42;;;;;;;7.20;4.37;;;;;;;22.75;63.94;100577.63;5111108;28;20174;-63
2022/05/13 02:18:08;;;;;;;9.83;4.23;;;;;;;22.75;63.36;100585.44;5127708;28;20189;-63
2022/05/13 02:20:33;;;;;;;8.10;4.07;;;;;;;22.74;63.57;100581.75;5121566;27;20261;-63
2022/05/13 02:22:59;;;;;;;6.53;4.27;;;;;;;22.75;63.80;100579.69;5090997;28;20202;-63
2022/05/13 02:25:24;;;;;;;5.23;4.47;;;;;;;22.74;63.46;100581.75;5099846;28;20181;-63
2022/05/13 02:27:50;;;;;;;6.57;4.20;;;;;;;22.74;63.45;100578.03;5109694;28;20176;-63
2022/05/13 02:30:15;;;;;;;7.00;4.40;;;;;;;22.74;63.30;100576.00;5111221;28;20201;-63
2022/05/13 02:32:41;;;;;;;6.40;3.70;;;;;;;22.74;63.47;100578.88;5111117;28;20207;-63
2022/05/13 02:35:07;;;;;;;5.57;4.20;;;;;;;22.74;63.56;100572.28;5111122;28;20562;-63
2022/05/13 02:37:32;;;;;;;6.00;3.80;;;;;;;22.73;63.71;100568.56;5110873;28;20525;-63
2022/05/13 02:39:58;;;;;;;5.60;3.90;;;;;;;22.72;63.15;100563.22;5111134;28;20526;-63
2022/05/13 02:42:23;;;;;;;7.33;3.80;;;;;;;22.72;63.69;100566.09;5111144;28;20180;-63
2022/05/13 02:44:49;;;;;;;6.63;4.23;;;;;;;22.73;62.84;100573.50;5110930;28;20244;-63
2022/05/13 02:47:15;;;;;;;6.47;3.83;;;;;;;22.73;62.99;100567.75;5109550;28;20201;-63
2022/05/13 02:49:40;;;;;;;5.07;4.10;;;;;;;22.73;63.08;100574.31;5111069;28;20709;-63
2022/05/13 02:52:06;;;;;;;6.77;3.70;;;;;;;22.72;62.91;100571.88;5093042;28;20240;-63
2022/05/13 02:54:31;;;;;;;4.87;3.57;;;;;;;22.71;63.39;100568.16;5090372;28;20174;-63
2022/05/13 02:56:57;;;;;;;5.30;3.57;;;;;;;22.72;63.70;100580.50;5091835;28;20261;-63
2022/05/13 02:59:22;;;;;;;5.47;3.77;;;;;;;22.71;63.24;100573.91;5094428;28;20215;-63
2022/05/13 03:01:48;;;;;;;4.70;3.40;;;;;;;22.71;63.42;100573.91;5094296;28;20178;-63
2022/05/13 03:04:13;;;;;;;8.30;4.10;;;;;;;22.71;63.08;100565.28;5094119;28;20236;-63
2022/05/13 03:06:38;;;;;;;6.80;3.70;;;;;;;22.71;63.33;100568.16;5094158;28;20357;-63
2022/05/13 03:09:04;;;;;;;5.90;3.67;;;;;;;22.71;63.34;100571.03;5094053;28;20240;-63
2022/05/13 03:11:29;;;;;;;6.20;3.50;;;;;;;22.70;63.20;100562.78;5094280;28;20179;-63
2022/05/13 03:13:55;;;;;;;6.60;3.60;;;;;;;22.70;63.20;100560.75;5094007;28;20196;-63
2022/05/13 03:16:22;;;;;;;5.37;3.40;;;;;;;22.70;63.01;100562.78;5098956;28;20184;-63
2022/05/13 03:18:48;;;;;;;9.50;4.03;;;;;;;22.70;63.12;100554.16;5114427;27;20177;-63
2022/05/13 03:21:13;;;;;;;7.87;3.87;;;;;;;22.69;63.27;100544.72;5108706;28;20411;-63
2022/05/13 03:23:42;;;;;;;6.73;3.53;;;;;;;22.69;63.03;100549.63;5114349;28;20897;-63
2022/05/13 03:26:08;;;;;;;6.10;3.53;;;;;;;22.71;62.84;100558.69;5109512;28;20197;-63
2022/05/13 03:28:33;;;;;;;5.67;3.67;;;;;;;22.71;63.05;100570.19;5109553;28;20910;-64
2022/05/13 03:30:59;;;;;;;6.70;3.20;;;;;;;22.69;63.04;100561.97;5112454;27;20194;-63
2022/05/13 03:33:24;;;;;;;6.23;3.93;;;;;;;22.70;63.26;100563.63;5112751;28;20177;-63
2022/05/13 03:35:50;;;;;;;6.97;3.10;;;;;;;22.69;62.84;100569.78;5112403;28;20161;-63
2022/05/13 03:38:16;;;;;;;8.43;3.00;;;;;;;22.69;63.26;100569.78;5112666;28;20177;-63
2022/05/13 03:40:41;;;;;;;5.30;3.50;;;;;;;22.69;62.98;100559.09;5112030;28;20178;-63
2022/05/13 03:43:06;;;;;;;6.67;3.60;;;;;;;22.69;63.14;100561.13;5112466;28;20415;-63
2022/05/13 03:45:36;;;;;;;6.97;3.57;;;;;;;22.68;63.39;100553.75;5113656;28;20552;-63
2022/05/13 03:48:02;;;;;;;8.07;3.30;;;;;;;22.68;63.50;100560.31;5114029;28;20176;-63
2022/05/13 03:50:27;;;;;;;5.90;3.77;;;;;;;22.67;63.36;100564.41;5109482;28;20452;-63
2022/05/13 03:52:53;;;;;;;8.73;3.80;;;;;;;22.68;63.07;100560.31;5093265;28;20930;-63
2022/05/13 03:55:18;;;;;;;6.10;3.23;;;;;;;22.68;63.34;100553.75;5093246;28;20671;-63
2022/05/13 03:57:44;;;;;;;6.30;3.20;;;;;;;22.67;63.39;100560.72;5095422;28;20210;-63
2022/05/13 04:00:10;;;;;;;6.07;3.67;;;;;;;22.68;63.32;100571.81;5113008;28;20185;-63
2022/05/13 04:02:36;;;;;;;5.90;3.50;;;;;;;22.67;63.01;100558.66;5112109;28;20529;-63
2022/05/13 04:10:30;;;;;;;5.73;3.43;;;;;;;22.67;63.20;100572.25;5092600;28;20534;-63
2022/05/13 04:18:23;;;;;;;5.77;3.50;;;;;;;22.66;62.78;100580.03;5130973;27;20965;-63
2022/05/13 04:20:49;;;;;;;4.50;3.03;;;;;;;22.66;63.10;100568.53;5109314;27;20413;-63
2022/05/13 04:23:15;;;;;;;6.10;3.47;;;;;;;22.67;62.80;100578.00;5092953;28;20177;-63
2022/05/13 04:25:40;;;;;;;6.30;2.90;;;;;;;22.65;63.25;100569.75;5091241;28;20262;-63
2022/05/13 04:28:06;;;;;;;4.50;3.43;;;;;;;22.65;62.76;100584.16;5092782;28;20412;-63
2022/05/13 04:30:31;;;;;;;5.30;3.27;;;;;;;22.66;63.16;100588.69;5092319;28;20244;-63
2022/05/13 04:32:56;;;;;;;6.70;3.20;;;;;;;22.66;63.10;100596.47;5091092;28;20175;-63
2022/05/13 04:35:22;;;;;;;5.50;3.00;;;;;;;22.65;62.69;100598.53;5089849;28;20170;-63
2022/05/13 04:37:47;;;;;;;6.13;3.20;;;;;;;22.65;62.90;100603.47;5089426;28;20174;-63
2022/05/13 04:40:13;;;;;;;5.00;3.10;;;;;;;22.64;63.08;100605.53;5088115;28;20158;-63
2022/05/13 04:42:51;;;;;;;6.07;3.23;;;;;;;22.64;62.95;100605.53;5087478;28;20166;-63
2022/05/13 04:45:26;;;;;;;5.27;3.37;;;;;;;22.64;63.17;100611.28;5088620;28;20189;-63
2022/05/13 04:50:40;;;;;;;5.00;3.50;;;;;;;22.64;62.90;100616.22;5090448;28;20518;-63
2022/05/13 04:53:06;;;;;;;6.43;3.00;;;;;;;22.63;63.00;100615.38;5091005;28;20412;-63
2022/05/13 04:55:31;;;;;;;4.60;2.87;;;;;;;22.63;63.19;100615.38;5091809;28;20169;-63
2022/05/13 04:57:57;;;;;;;5.40;2.93;;;;;;;22.63;62.90;100621.13;5092081;28;20170;-63
2022/05/13 05:00:22;;;;;;;5.40;3.27;;;;;;;22.63;62.77;100620.31;5091922;28;20163;-63
2022/05/13 05:02:48;;;;;;;4.87;3.37;;;;;;;22.62;63.31;100633.06;5091848;28;20223;-63
2022/05/13 05:05:13;;;;;;;3.90;2.80;;;;;;;22.62;63.22;100627.31;5092102;28;20162;-63
2022/05/13 05:07:38;;;;;;;6.63;3.23;;;;;;;22.62;63.17;100633.06;5091905;28;20175;-63
2022/05/13 05:10:04;;;;;;;7.23;3.17;;;;;;;22.61;63.17;100635.09;5091659;28;20238;-63
2022/05/13 05:12:30;;;;;;;6.60;3.70;;;;;;;22.60;63.19;100633.47;5091891;28;20235;-63
2022/05/13 05:14:55;;;;;;;4.23;2.70;;;;;;;22.60;63.10;100639.22;5092002;28;20648;-63
2022/05/13 05:17:21;;;;;;;5.80;3.37;;;;;;;22.61;62.87;100623.59;5111708;27;20173;-63
2022/05/13 05:19:46;;;;;;;7.00;2.97;;;;;;;22.61;62.99;100625.63;5113135;27;20536;-63
2022/05/13 05:22:12;;;;;;;5.23;3.70;;;;;;;22.61;63.23;100631.38;5103527;28;20177;-63
2022/05/13 05:24:37;;;;;;;5.30;3.47;;;;;;;22.61;62.98;100632.22;5110992;28;20181;-63
2022/05/13 05:27:05;;;;;;;6.80;3.00;;;;;;;22.61;62.88;100629.34;5110000;28;20418;-63
2022/05/13 05:29:30;;;;;;;5.60;3.23;;;;;;;22.62;63.23;100641.69;5110229;28;20196;-63
2022/05/13 05:31:56;;;;;;;5.73;3.37;;;;;;;22.60;63.25;100647.84;5109972;28;20399;-63
2022/05/13 05:34:21;;;;;;;9.00;3.80;;;;;;;22.61;63.29;100640.03;5102477;28;20169;-63
2022/05/13 05:36:46;;;;;;;7.73;3.70;;;;;;;22.60;63.17;100642.09;5105041;28;20540;-63
2022/05/13 05:39:12;;;;;;;8.77;4.20;;;;;;;22.60;63.27;100644.13;5110590;28;20624;-63
2022/05/13 05:41:37;;;;;;;5.60;3.60;;;;;;;22.60;63.07;100642.09;5111720;28;20180;-63
2022/05/13 05:44:03;;;;;;;5.27;3.27;;;;;;;22.59;63.14;100637.56;5111688;28;20179;-63
2022/05/13 05:46:29;;;;;;;6.10;3.37;;;;;;;22.59;63.25;100643.31;5110944;28;20215;-63
2022/05/13 05:48:54;;;;;;;5.53;3.43;;;;;;;22.59;62.90;100643.31;5111592;28;20572;-63
2022/05/13 05:51:20;;;;;;;7.13;3.53;;;;;;;22.59;63.15;100651.97;5107098;28;20178;-63
2022/05/13 05:59:13;;;;;;;6.50;3.53;;;;;;;22.58;62.97;100664.69;5111308;28;20395;-63
2022/05/13 06:01:39;;;;;;;6.10;2.80;;;;;;;22.58;63.09;100669.63;5115017;28;20414;-63
2022/05/13 06:04:05;;;;;;;6.80;3.67;;;;;;;22.58;63.12;100666.75;5132137;27;20256;-63
2022/05/13 06:06:30;;;;;;;4.97;3.33;;;;;;;22.58;62.96;100681.94;5132066;27;20180;-63
2022/05/13 06:08:57;;;;;;;6.07;3.23;;;;;;;22.57;63.09;100674.53;5131426;27;20465;-63
2022/05/13 06:11:26;;;;;;;4.30;3.33;;;;;;;22.56;62.62;100675.78;5092318;28;20189;-63
2022/05/13 06:13:53;;;;;;;10.43;3.60;;;;;;;22.63;63.27;100670.06;5107615;28;20548;-63
2022/05/13 06:16:19;;;;;;;12.50;4.77;;;;;;;22.81;64.27;100673.06;5103097;28;20583;-63
2022/05/13 06:18:45;;;;;;;9.73;6.10;;;;;;;22.97;65.87;100670.72;5096760;27;20522;-63
2022/05/13 06:21:10;;;;;;;19.40;7.03;;;;;;;22.98;65.81;100667.41;5090760;28;20420;-63
2022/05/13 06:23:36;;;;;;;14.33;6.50;;;;;;;22.91;64.77;100678.91;5089731;28;20474;-63
2022/05/13 06:26:02;;;;;;;16.97;5.80;;;;;;;23.01;64.67;100675.25;5090639;28;20257;-63
2022/05/13 06:28:27;;;;;;;15.43;5.93;;;;;;;23.03;64.52;100674.88;5106526;28;20599;-63
2022/05/13 06:30:53;;;;;;;10.53;5.50;;;;;;;22.92;63.72;100689.19;5105998;28;20432;-64
2022/05/13 06:33:19;;;;;;;11.07;4.80;;;;;;;22.86;63.17;100696.56;5105137;28;20192;-65
2022/05/13 06:35:44;;;;;;;12.97;4.83;;;;;;;22.88;63.28;100694.09;5097266;28;20236;-64
2022/05/13 06:38:20;;;;;;;8.70;4.30;;;;;;;22.92;63.40;100697.03;5094777;28;20171;-63
2022/05/13 06:40:46;;;;;;;8.13;4.23;;;;;;;22.90;63.19;100694.53;5094496;28;20158;-63
2022/05/13 06:43:11;;;;;;;9.47;4.20;;;;;;;22.91;62.67;100696.19;5112202;28;20438;-63
2022/05/13 06:45:37;;;;;;;7.10;3.90;;;;;;;22.91;63.09;100701.94;5114657;28;20941;-64
2022/05/13 06:48:04;;;;;;;8.53;4.43;;;;;;;22.85;62.02;100706.44;5109103;27;20645;-64
2022/05/13 06:50:30;;;;;;;6.47;3.73;;;;;;;22.86;62.09;100710.94;5106014;28;20583;-64
2022/05/13 06:52:55;;;;;;;12.43;4.30;;;;;;;22.93;61.45;100708.13;5114270;28;20446;-64
2022/05/13 06:55:20;;;;;;;12.77;4.03;;;;;;;22.92;60.83;100706.47;5114827;28;20246;-64
2022/05/13 06:57:46;;;;;;;10.80;3.73;;;;;;;22.87;61.07;100711.78;5104654;28;20625;-64
2022/05/13 07:00:12;;;;;;;5.83;3.13;;;;;;;22.88;61.15;100713.44;5114877;27;20158;-64
2022/05/13 07:02:38;;;;;;;12.10;3.60;;;;;;;22.90;61.71;100723.34;5114201;28;20174;-64
2022/05/13 07:05:03;;;;;;;13.43;3.50;;;;;;;22.90;61.18;100720.44;5114605;28;20426;-64
2022/05/13 07:07:29;;;;;;;13.07;3.70;;;;;;;22.91;61.11;100718.38;5112584;28;20165;-64
2022/05/13 07:09:54;;;;;;;9.00;3.33;;;;;;;22.90;60.17;100734.00;5114294;28;20221;-64
2022/05/13 07:12:19;;;;;;;11.53;3.60;;;;;;;22.89;60.73;100730.31;5100335;28;20186;-64
2022/05/13 07:14:45;;;;;;;11.13;3.23;;;;;;;22.90;61.00;100734.84;5092924;28;20189;-64
2022/05/13 07:17:10;;;;;;;7.33;3.30;;;;;;;22.93;60.41;100733.22;5107694;27;20173;-64
2022/05/13 07:19:36;;;;;;;8.73;3.17;;;;;;;22.85;58.55;100723.72;5095454;27;20197;-64
2022/05/13 07:22:01;;;;;;;11.57;3.00;;;;;;;22.90;59.17;100737.72;5093877;28;20187;-64
2022/05/13 07:24:28;;;;;;;9.77;3.00;;;;;;;22.99;59.46;100726.69;5094869;28;20648;-64
2022/05/13 07:26:53;;;;;;;8.27;3.00;;;;;;;22.97;59.42;100726.25;5111452;28;20181;-64
2022/05/13 07:29:18;;;;;;;12.30;2.80;;;;;;;22.99;59.57;100726.69;5101768;28;20487;-64
2022/05/13 07:31:44;;;;;;;9.97;3.00;;;;;;;23.02;59.71;100737.38;5094745;28;20630;-63
2022/05/13 07:34:09;;;;;;;16.20;3.33;;;;;;;23.00;60.34;100748.50;5095942;28;20613;-63
2022/05/13 07:36:35;;;;;;;9.53;2.93;;;;;;;22.90;60.30;100745.53;5095895;28;20676;-64
2022/05/13 07:41:45;;;;;;;6.83;2.50;;;;;;;22.91;59.89;100759.53;5107651;28;20192;-64
2022/05/13 07:44:10;;;;;;;10.90;2.90;;;;;;;22.92;59.35;100763.25;5093014;28;20431;-63
2022/05/13 07:46:36;;;;;;;14.50;3.10;;;;;;;22.83;59.56;100762.75;5109460;28;20174;-64
2022/05/13 07:49:01;;;;;;;9.00;3.03;;;;;;;22.75;59.05;100764.75;5101424;28;20220;-64
2022/05/13 07:51:27;;;;;;;10.00;3.07;;;;;;;22.74;58.61;100771.75;5099257;28;20182;-64
2022/05/13 07:53:53;;;;;;;9.43;3.30;;;;;;;22.67;58.61;100771.66;5092077;28;20259;-64
2022/05/13 07:56:18;;;;;;;11.20;2.60;;;;;;;22.63;58.43;100767.13;5102383;28;20189;-64
2022/05/13 07:58:44;;;;;;;14.97;3.03;;;;;;;22.68;59.84;100773.31;5094358;28;20433;-63
2022/05/13 08:01:09;;;;;;;19.17;3.30;;;;;;;22.71;59.90;100769.66;5092516;28;20183;-63
2022/05/13 08:03:35;;;;;;;14.40;3.00;;;;;;;22.64;59.76;100774.50;5093018;28;20166;-63
2022/05/13 08:06:03;;;;;;;13.53;3.00;;;;;;;22.61;59.18;100772.41;5104113;28;20178;-63
2022/05/13 08:08:40;;;;;;;13.87;3.37;;;;;;;22.57;58.76;100778.16;5092185;28;20182;-63
2022/05/13 08:11:07;;;;;;;11.03;3.33;;;;;;;22.51;57.94;100774.00;5092735;28;20483;-63
2022/05/13 08:13:34;;;;;;;11.17;3.00;;;;;;;22.52;57.72;100774.81;5113219;28;21031;-63
2022/05/13 08:16:02;;;;;;;11.03;2.93;;;;;;;22.48;57.89;100769.00;5112081;28;20427;-63
2022/05/13 08:18:28;;;;;;;9.90;3.00;;;;;;;22.46;57.31;100777.22;5132838;27;20898;-63
2022/05/13 08:20:53;;;;;;;6.63;2.53;;;;;;;22.44;57.21;100773.06;5115748;27;20645;-63
2022/05/13 08:23:19;;;;;;;5.53;2.80;;;;;;;22.43;57.15;100772.22;5111831;28;20192;-63
2022/05/13 08:25:44;;;;;;;11.80;3.23;;;;;;;22.44;57.34;100773.94;5096973;28;20637;-63
2022/05/13 08:28:10;;;;;;;7.90;2.60;;;;;;;22.39;57.18;100768.50;5107676;28;20182;-63
2022/05/13 08:30:37;;;;;;;9.93;2.67;;;;;;;22.37;57.28;100770.13;5093148;28;20208;-63
2022/05/13 08:33:08;;;;;;;9.43;2.97;;;;;;;22.33;56.97;100778.69;5113086;28;20628;-63
2022/05/13 08:35:37;;;;;;;8.83;2.50;;;;;;;22.32;56.51;100776.25;5112771;28;20868;-63
2022/05/13 08:38:03;;;;;;;6.97;2.60;;;;;;;22.30;56.54;100779.50;5111489;28;20480;-63
2022/05/13 08:40:49;;;;;;;4.60;2.20;;;;;;;22.32;56.80;100777.03;5098141;28;20433;-63
2022/05/13 08:43:19;;;;;;;12.10;2.87;;;;;;;22.37;56.76;100782.44;5111397;28;20186;-63
2022/05/13 08:45:50;;;;;;;11.73;2.70;;;;;;;22.43;56.61;100777.97;5100085;28;20486;-63
2022/05/13 08:48:17;;;;;;;11.40;2.43;;;;;;;22.49;56.26;100776.44;5090772;28;20434;-63
2022/05/13 08:50:55;;;;;;;9.03;2.50;;;;;;;22.53;57.14;100773.59;5093102;28;20508;-63
2022/05/13 08:53:36;;;;;;;7.57;2.43;;;;;;;22.54;56.87;100760.84;5088207;28;20408;-63
2022/05/13 08:56:07;;;;;;;9.50;2.60;;;;;;;22.55;56.95;100771.13;5087636;28;20558;-63
2022/05/13 08:58:38;;;;;;;10.20;3.20;;;;;;;22.55;57.05;100774.84;5071362;28;20419;-63
2022/05/13 09:01:04;;;;;;;8.33;2.37;;;;;;;22.56;56.94;100782.25;5072283;28;20511;-63
2022/05/13 09:03:30;;;;;;;9.40;2.30;;;;;;;22.54;56.59;100776.09;5073586;28;20427;-63
2022/05/13 09:05:58;;;;;;;6.70;2.53;;;;;;;22.53;57.09;100776.47;5089074;28;20404;-63
2022/05/13 09:08:24;;;;;;;8.33;2.33;;;;;;;22.52;56.72;100774.81;5090167;28;20820;-63
2022/05/13 09:11:00;;;;;;;7.20;2.50;;;;;;;22.49;55.92;100775.59;5106798;28;20464;-63
2022/05/13 09:14:00;;;;;;;7.93;2.50;;;;;;;22.47;56.08;100767.38;5109355;28;20218;-63
2022/05/13 09:17:10;;;;;;;5.87;2.40;;;;;;;22.47;56.29;100776.00;5096003;27;20415;-63
2022/05/13 09:20:15;;;;;;;8.43;2.60;;;;;;;22.48;55.66;100783.41;5132293;27;20454;-63
2022/05/13 09:22:52;;;;;;;6.17;1.90;;;;;;;22.49;56.20;100782.19;5130517;27;20932;-63
2022/05/13 09:25:21;;;;;;;7.93;2.10;;;;;;;22.49;55.58;100782.19;5130935;27;20433;-63
2022/05/13 09:27:49;;;;;;;8.37;2.33;;;;;;;22.50;55.81;100792.47;5092832;27;20784;-63
2022/05/13 09:30:20;;;;;;;4.30;1.80;;;;;;;22.50;54.89;100780.13;5094968;28;20452;-63
2022/05/13 09:32:46;;;;;;;4.17;2.00;;;;;;;22.48;54.96;100780.53;5109009;28;20411;-63
2022/05/13 09:35:34;;;;;;;11.73;2.43;;;;;;;22.49;55.02;100785.09;5109115;28;20407;-63
2022/05/13 09:38:00;;;;;;;5.07;1.90;;;;;;;22.50;54.28;100783.84;5108063;28;20636;-63
2022/05/13 09:40:26;;;;;;;5.30;1.80;;;;;;;22.51;54.97;100788.38;5091759;28;20427;-63
2022/05/13 09:42:56;;;;;;;5.50;1.70;;;;;;;22.52;54.99;100792.09;5109250;28;20415;-63
2022/05/13 09:45:27;;;;;;;8.17;2.17;;;;;;;22.51;54.46;100785.50;5106057;28;20439;-63
2022/05/13 09:48:07;;;;;;;3.87;1.60;;;;;;;22.51;54.77;100787.53;5108874;28;20440;-63
2022/05/13 09:50:38;;;;;;;6.10;2.03;;;;;;;22.51;54.23;100784.66;5109548;28;20451;-63
2022/05/13 09:53:12;;;;;;;6.40;2.20;;;;;;;22.51;54.52;100791.25;5108630;28;20465;-63
2022/05/13 09:55:41;;;;;;;5.03;2.47;;;;;;;22.53;54.55;100787.97;5108823;28;21122;-63
2022/05/13 09:58:20;;;;;;;5.63;2.20;;;;;;;22.52;54.39;100787.16;5097240;28;20409;-63
2022/05/13 10:00:48;;;;;;;5.50;1.90;;;;;;;22.51;54.28;100785.50;5089836;28;20805;-63
2022/05/13 10:03:23;;;;;;;5.30;2.07;;;;;;;22.51;54.60;100791.25;5073297;28;20450;-63
2022/05/13 10:06:08;;;;;;;5.57;2.00;;;;;;;22.49;54.47;100798.63;5091133;28;20421;-63
2022/05/13 10:08:35;;;;;;;4.00;2.00;;;;;;;22.50;54.03;100794.53;5089830;28;20427;-63
2022/05/13 10:13:59;;;;;;;4.13;1.63;;;;;;;22.47;53.58;100787.50;5090194;28;20415;-63
2022/05/13 10:16:44;;;;;;;6.40;2.23;;;;;;;22.46;53.36;100790.78;5095138;28;20420;-63
2022/05/13 10:19:47;;;;;;;5.27;1.80;;;;;;;22.47;53.71;100796.13;5114038;28;20459;-63
2022/05/13 10:22:18;;;;;;;6.00;1.87;;;;;;;22.47;53.90;100790.38;5132016;27;20420;-63
2022/05/13 10:24:44;;;;;;;3.47;1.60;;;;;;;22.46;53.96;100794.50;5131857;27;20450;-63
2022/05/13 10:27:30;;;;;;;5.53;1.60;;;;;;;22.46;53.91;100794.50;5131499;27;20479;-63
2022/05/13 10:30:00;;;;;;;5.37;1.90;;;;;;;22.47;53.35;100793.25;5117573;28;20222;-63
2022/05/13 10:32:27;;;;;;;4.80;1.93;;;;;;;22.47;53.29;100798.22;5077050;28;20475;-63
2022/05/13 10:34:54;;;;;;;4.90;1.83;;;;;;;22.47;53.54;100784.63;5090876;28;20481;-63
2022/05/13 10:37:38;;;;;;;3.50;1.70;;;;;;;22.47;53.49;100790.38;5089356;28;20404;-63
2022/05/13 10:40:09;;;;;;;5.00;2.10;;;;;;;22.46;53.11;100785.84;5089511;28;20408;-63
2022/05/13 10:42:48;;;;;;;6.83;2.47;;;;;;;22.47;53.03;100784.63;5090840;28;20420;-63
2022/05/13 10:45:22;;;;;;;9.10;1.80;;;;;;;22.49;53.10;100795.75;5072919;28;20443;-63
2022/05/13 10:47:50;;;;;;;7.23;1.83;;;;;;;22.48;53.34;100794.91;5073140;28;20412;-63
2022/05/13 10:50:26;;;;;;;7.70;2.10;;;;;;;22.50;53.17;100794.53;5090512;28;20970;-63
2022/05/13 10:53:12;;;;;;;7.33;1.60;;;;;;;22.50;52.76;100783.84;5089346;28;20444;-63
2022/05/13 10:55:40;;;;;;;5.53;1.90;;;;;;;22.51;53.07;100785.50;5090375;28;20926;-63
2022/05/13 10:58:27;;;;;;;6.70;1.53;;;;;;;22.50;53.00;100780.97;5090472;28;20892;-63
2022/05/13 11:00:59;;;;;;;5.80;2.33;;;;;;;22.50;52.65;100780.97;5090399;28;20443;-63
2022/05/13 11:03:29;;;;;;;4.60;1.57;;;;;;;22.51;52.65;100785.50;5090882;28;20841;-63
2022/05/13 11:06:16;;;;;;;5.03;1.80;;;;;;;22.47;52.96;100776.00;5090460;28;20952;-63
2022/05/13 11:09:00;;;;;;;3.43;1.40;;;;;;;22.48;52.98;100777.66;5082941;28;20511;-63
2022/05/13 11:11:39;;;;;;;4.07;1.50;;;;;;;22.49;52.26;100776.44;5090160;28;20477;-63
2022/05/13 11:14:22;;;;;;;7.43;2.20;;;;;;;22.49;52.49;100773.56;5090297;28;20440;-63
2022/05/13 11:16:55;;;;;;;7.03;1.77;;;;;;;22.50;51.99;100778.09;5101950;27;20403;-63
2022/05/13 11:19:23;;;;;;;5.17;1.83;;;;;;;22.51;51.90;100771.09;5104745;27;20424;-63
2022/05/13 11:22:18;;;;;;;5.23;1.33;;;;;;;22.52;51.81;100767.00;5095612;28;20403;-63
2022/05/13 11:27:49;;;;;;;5.87;1.90;;;;;;;22.52;51.51;100761.25;5094348;28;20416;-63
2022/05/13 11:30:19;;;;;;;4.87;1.63;;;;;;;22.52;51.91;100758.38;5093962;28;20550;-63
2022/05/13 11:33:01;;;;;;;6.90;2.13;;;;;;;22.54;52.10;100749.34;5075906;28;20412;-63
2022/05/13 11:36:15;;;;;;;7.10;2.00;;;;;;;22.56;50.95;100759.22;5076269;28;20828;-63
2022/05/13 11:39:04;;;;;;;4.97;1.90;;;;;;;22.55;51.06;100757.59;5055985;28;20406;-63
2022/05/13 11:41:38;;;;;;;11.37;2.07;;;;;;;22.53;51.73;100760.00;5093532;28;20415;-63
2022/05/13 11:44:04;;;;;;;5.90;1.70;;;;;;;22.53;51.82;100754.25;5075845;28;20408;-63
2022/05/13 11:46:35;;;;;;;5.47;1.90;;;;;;;22.53;51.40;100759.22;5093418;28;20491;-63
2022/05/13 11:49:21;;;;;;;7.50;1.97;;;;;;;22.53;51.83;100745.63;5109728;28;20426;-63
2022/05/13 11:51:47;;;;;;;5.23;1.80;;;;;;;22.53;51.35;100754.25;5107114;28;20436;-63
2022/05/13 11:54:21;;;;;;;5.57;2.00;;;;;;;22.55;50.89;100756.75;5093640;28;20423;-63
2022/05/13 11:56:47;;;;;;;6.00;2.03;;;;;;;22.56;50.73;100758.41;5096062;28;20790;-63
2022/05/13 11:59:40;;;;;;;5.50;1.87;;;;;;;22.55;50.42;100757.59;5093297;28;20532;-63
2022/05/13 12:02:05;;;;;;;7.23;2.10;;;;;;;22.54;50.85;100752.22;5112611;28;20248;-63